createdAt,value
2018-02-22T00:00:15.620Z,1.39
2018-02-22T00:02:46.040Z,1.39
2018-02-22T00:05:15.901Z,1.29
2018-02-22T00:07:45.611Z,1.32
2018-02-22T00:10:16.051Z,1.30
2018-02-22T00:12:45.796Z,1.34
2018-02-22T00:15:15.546Z,1.36
2018-02-22T00:17:45.286Z,1.32
2018-02-22T00:20:15.048Z,1.25
2018-02-22T00:22:44.811Z,1.31
2018-02-22T00:25:14.660Z,1.32
2018-02-22T00:27:44.381Z,1.28
2018-02-22T00:30:14.071Z,1.30
2018-02-22T00:32:43.843Z,1.28
2018-02-22T00:35:14.288Z,1.22
2018-02-22T00:37:44.017Z,1.26
2018-02-22T00:40:13.868Z,1.19
2018-02-22T00:42:43.575Z,1.21
2018-02-22T00:45:13.248Z,1.21
2018-02-22T00:47:42.993Z,1.21
2018-02-22T00:50:13.486Z,1.13
2018-02-22T00:52:43.213Z,1.16
2018-02-22T00:55:13.144Z,1.16
2018-02-22T00:57:42.820Z,1.15
2018-02-22T01:00:12.531Z,1.24
2018-02-22T01:02:42.230Z,1.20
2018-02-22T01:05:12.760Z,1.16
2018-02-22T01:07:42.475Z,1.18
2018-02-22T01:10:12.281Z,1.12
2018-02-22T01:12:42.116Z,1.10
2018-02-22T01:15:11.837Z,1.03
2018-02-22T01:17:41.572Z,1.08
2018-02-22T01:20:11.476Z,1.02
2018-02-22T01:22:41.154Z,1.06
2018-02-22T01:25:10.850Z,0.99
2018-02-22T01:27:41.343Z,1.05
2018-02-22T01:30:11.105Z,1.12
2018-02-22T01:32:40.831Z,1.07
2018-02-22T01:35:10.768Z,1.05
2018-02-22T01:37:41.283Z,1.04
2018-02-22T01:40:10.996Z,1.01
2018-02-22T01:42:40.716Z,1.03
2018-02-22T01:45:10.796Z,0.99
2018-02-22T01:47:40.468Z,1.03
2018-02-22T01:50:10.295Z,1.00
2018-02-22T01:52:39.968Z,0.94
2018-02-22T01:55:09.958Z,0.92
2018-02-22T01:57:39.646Z,0.97
2018-02-22T02:00:09.456Z,0.91
2018-02-22T02:02:39.206Z,0.98
2018-02-22T02:05:08.934Z,0.98
2018-02-22T02:07:38.713Z,0.83
2018-02-22T02:10:08.564Z,0.82
2018-02-22T02:12:38.277Z,0.87
2018-02-22T02:15:08.012Z,0.79
2018-02-22T02:17:37.704Z,0.78
2018-02-22T02:20:07.448Z,0.76
2018-02-22T02:28:08.572Z,0.76
2018-02-22T02:30:38.280Z,0.66
2018-02-22T02:33:07.984Z,0.72
2018-02-22T02:35:37.727Z,0.74
2018-02-22T02:38:07.423Z,0.76
2018-02-22T02:40:37.156Z,0.76
2018-02-22T02:43:06.883Z,0.67
2018-02-22T02:45:36.624Z,0.66
2018-02-22T02:48:06.336Z,0.64
2018-02-22T02:50:36.019Z,0.65
2018-02-22T02:53:06.763Z,0.74
2018-02-22T02:55:36.444Z,0.70
2018-02-22T02:58:06.161Z,0.72
2018-02-22T03:00:35.922Z,0.64
2018-02-22T03:03:05.648Z,0.65
2018-02-22T03:05:35.622Z,0.65
2018-02-22T03:08:05.316Z,0.60
2018-02-22T03:10:34.999Z,0.59
2018-02-22T03:13:05.480Z,0.67
2018-02-22T03:15:35.179Z,0.65
2018-02-22T03:18:04.877Z,0.64
2018-02-22T03:20:35.331Z,0.57
2018-02-22T03:23:05.128Z,0.57
2018-02-22T03:25:34.943Z,0.61
2018-02-22T03:28:04.683Z,0.61
2018-02-22T03:30:35.160Z,0.56
2018-02-22T03:33:04.886Z,0.56
2018-02-22T03:35:34.558Z,0.55
2018-02-22T03:38:05.112Z,0.54
2018-02-22T03:40:35.584Z,0.58
2018-02-22T03:43:05.301Z,0.59
2018-02-22T03:45:35.045Z,0.58
2018-02-22T03:48:04.748Z,0.61
2018-02-22T03:50:34.433Z,0.58
2018-02-22T03:53:04.934Z,0.58
2018-02-22T03:55:34.748Z,0.58
2018-02-22T03:58:04.553Z,0.56
2018-02-22T04:00:34.346Z,0.57
2018-02-22T04:03:04.777Z,0.55
2018-02-22T04:05:35.239Z,0.51
2018-02-22T04:08:05.048Z,0.49
2018-02-22T04:10:35.531Z,0.57
2018-02-22T04:13:05.205Z,0.53
2018-02-22T04:15:35.689Z,0.50
2018-02-22T04:18:05.451Z,0.52
2018-02-22T04:20:36.011Z,0.48
2018-02-22T04:23:05.767Z,0.46
2018-02-22T04:25:35.508Z,0.44
2018-02-22T04:28:05.252Z,0.43
2018-02-22T04:30:35.052Z,0.40
2018-02-22T04:33:04.787Z,0.43
2018-02-22T04:35:34.495Z,0.43
2018-02-22T04:38:04.329Z,0.41
2018-02-22T04:40:33.980Z,0.40
2018-02-22T04:43:04.460Z,0.40
2018-02-22T04:45:34.159Z,0.40
2018-02-22T04:48:03.975Z,0.41
2018-02-22T04:50:33.688Z,0.38
2018-02-22T04:53:04.379Z,0.32
2018-02-22T04:55:34.093Z,0.38
2018-02-22T04:58:03.864Z,0.37
2018-02-22T05:00:35.091Z,0.40
2018-02-22T05:03:09.602Z,0.37
2018-02-22T05:05:42.267Z,0.32
2018-02-22T05:11:20.711Z,0.36
2018-02-22T05:20:33.377Z,0.20
2018-02-22T05:23:03.093Z,0.24
2018-02-22T05:25:32.923Z,0.26
2018-02-22T05:28:02.645Z,0.28
2018-02-22T05:30:32.493Z,0.21
2018-02-22T05:33:03.082Z,0.20
2018-02-22T05:35:33.646Z,0.35
2018-02-22T05:38:03.336Z,0.31
2018-02-22T05:40:33.148Z,0.30
2018-02-22T05:43:02.871Z,0.22
2018-02-22T05:45:32.731Z,0.22
2018-02-22T05:48:02.414Z,0.46
2018-02-22T05:50:32.215Z,0.45
2018-02-22T05:53:02.712Z,0.57
2018-02-22T05:55:32.464Z,0.36
2018-02-22T05:58:02.272Z,0.32
2018-02-22T06:00:32.073Z,0.29
2018-02-22T06:03:01.754Z,0.20
2018-02-22T06:05:32.244Z,0.30
2018-02-22T06:08:01.948Z,0.22
2018-02-22T06:10:32.163Z,0.16
2018-02-22T06:13:01.912Z,0.17
2018-02-22T06:15:31.701Z,0.20
2018-02-22T06:18:01.600Z,0.21
2018-02-22T06:20:32.136Z,0.21
2018-02-22T06:23:01.842Z,0.17
2018-02-22T06:25:31.532Z,0.23
2018-02-22T06:28:01.358Z,0.30
2018-02-22T06:30:31.077Z,0.18
2018-02-22T06:33:00.863Z,0.17
2018-02-22T06:35:31.312Z,0.15
2018-02-22T06:38:01.182Z,0.19
2018-02-22T06:40:30.950Z,0.19
2018-02-22T06:43:01.645Z,0.15
2018-02-22T06:45:31.546Z,0.19
2018-02-22T06:48:01.418Z,0.12
2018-02-22T06:50:31.159Z,0.18
2018-02-22T06:53:01.629Z,0.20
2018-02-22T06:55:31.416Z,0.19
2018-02-22T06:58:01.865Z,0.22
2018-02-22T07:00:32.401Z,0.13
2018-02-22T07:03:02.892Z,0.32
2018-02-22T07:05:32.951Z,0.27
2018-02-22T07:08:02.786Z,0.26
2018-02-22T07:10:32.498Z,0.64
2018-02-22T07:13:02.199Z,0.44
2018-02-22T07:15:31.905Z,0.37
2018-02-22T07:18:02.613Z,0.39
2018-02-22T07:20:33.352Z,0.40
2018-02-22T07:23:03.770Z,0.37
2018-02-22T07:25:33.463Z,0.43
2018-02-22T07:28:03.171Z,0.41
2018-02-22T07:30:39.471Z,0.49
2018-02-22T07:33:09.328Z,0.51
2018-02-22T07:35:39.975Z,0.53
2018-02-22T07:38:09.749Z,0.68
2018-02-22T07:40:39.549Z,0.76
2018-02-22T07:43:09.287Z,0.82
2018-02-22T07:45:39.195Z,0.74
2018-02-22T07:48:09.003Z,0.81
2018-02-22T07:50:38.832Z,0.91
2018-02-22T07:53:08.671Z,0.88
2018-02-22T07:55:39.344Z,0.85
2018-02-22T07:58:09.208Z,0.85
2018-02-22T08:00:39.739Z,0.95
2018-02-22T08:03:09.480Z,1.10
2018-02-22T08:05:39.190Z,1.10
2018-02-22T08:08:09.772Z,1.18
2018-02-22T08:10:39.575Z,1.19
2018-02-22T08:13:09.256Z,1.28
2018-02-22T08:15:39.023Z,1.30
2018-02-22T08:18:08.905Z,1.31
2018-02-22T08:20:38.613Z,1.40
2018-02-22T08:23:09.154Z,1.42
2018-02-22T08:25:38.848Z,1.44
2018-02-22T08:28:08.548Z,1.37
2018-02-22T08:30:38.304Z,1.60
2018-02-22T08:33:08.077Z,1.58
2018-02-22T08:35:38.590Z,1.72
2018-02-22T08:38:08.508Z,1.68
2018-02-22T08:40:38.307Z,1.80
2018-02-22T08:43:08.043Z,1.84
2018-02-22T08:45:37.843Z,2.04
2018-02-22T08:48:07.619Z,2.21
2018-02-22T08:50:38.080Z,2.47
2018-02-22T08:53:07.819Z,2.47
2018-02-22T08:55:37.529Z,2.24
2018-02-22T08:58:07.245Z,2.16
2018-02-22T09:00:36.978Z,2.13
2018-02-22T09:03:06.825Z,2.19
2018-02-22T09:05:36.529Z,2.25
2018-02-22T09:08:06.297Z,2.24
2018-02-22T09:10:36.095Z,2.42
2018-02-22T09:13:05.795Z,2.45
2018-02-22T09:15:35.568Z,2.47
2018-02-22T09:18:05.285Z,2.63
2018-02-22T09:20:35.017Z,2.78
2018-02-22T09:23:05.498Z,2.44
2018-02-22T09:25:35.281Z,2.59
2018-02-22T09:28:05.870Z,2.71
2018-02-22T09:30:36.349Z,2.63
2018-02-22T09:33:06.190Z,2.77
2018-02-22T09:35:36.664Z,3.01
2018-02-22T09:38:06.433Z,2.97
2018-02-22T09:40:36.128Z,2.93
2018-02-22T09:43:05.832Z,3.12
2018-02-22T09:45:35.533Z,3.22
2018-02-22T09:48:05.484Z,3.14
2018-02-22T09:50:35.229Z,3.15
2018-02-22T09:53:04.931Z,3.05
2018-02-22T09:55:34.827Z,3.16
2018-02-22T09:58:04.576Z,3.24
2018-02-22T10:00:35.178Z,3.29
2018-02-22T10:03:05.838Z,3.22
2018-02-22T10:05:35.589Z,3.13
2018-02-22T10:08:05.312Z,3.22
2018-02-22T10:10:35.880Z,3.45
2018-02-22T10:13:05.756Z,3.34
2018-02-22T10:15:35.474Z,3.40
2018-02-22T10:18:05.175Z,3.57
2018-02-22T10:20:36.417Z,3.58
2018-02-22T10:23:06.076Z,3.57
2018-02-22T10:25:35.910Z,3.46
2018-02-22T10:28:05.643Z,3.67
2018-02-22T10:30:35.399Z,3.72
2018-02-22T10:33:06.089Z,3.88
2018-02-22T10:35:35.804Z,3.96
2018-02-22T10:38:05.492Z,4.15
2018-02-22T10:40:35.237Z,4.00
2018-02-22T10:43:04.947Z,4.00
2018-02-22T10:45:35.416Z,4.07
2018-02-22T10:48:05.340Z,4.15
2018-02-22T10:50:35.045Z,4.17
2018-02-22T10:53:04.788Z,3.89
2018-02-22T10:55:34.538Z,3.88
2018-02-22T10:58:04.271Z,3.98
2018-02-22T11:00:38.038Z,4.14
2018-02-22T11:03:07.720Z,4.20
2018-02-22T11:05:37.561Z,4.08
2018-02-22T11:08:07.989Z,3.99
2018-02-22T11:10:38.480Z,4.10
2018-02-22T11:13:08.236Z,4.08
2018-02-22T11:15:38.824Z,4.27
2018-02-22T11:18:08.625Z,4.34
2018-02-22T11:20:39.193Z,4.25
2018-02-22T11:23:09.347Z,4.27
2018-02-22T11:25:39.130Z,4.40
2018-02-22T11:28:08.924Z,4.42
2018-02-22T11:30:38.757Z,4.38
2018-02-22T11:33:09.236Z,4.32
2018-02-22T11:35:38.932Z,4.32
2018-02-22T11:38:09.493Z,4.31
2018-02-22T11:40:39.194Z,4.36
2018-02-22T11:43:09.809Z,4.36
2018-02-22T11:45:39.517Z,4.55
2018-02-22T11:48:09.215Z,4.77
2018-02-22T11:50:38.946Z,4.87
2018-02-22T11:53:08.672Z,4.82
2018-02-22T11:55:38.384Z,4.80
2018-02-22T11:58:08.828Z,4.76
2018-02-22T12:00:38.695Z,4.80
2018-02-22T12:03:09.173Z,4.87
2018-02-22T12:05:38.925Z,4.84
2018-02-22T12:08:08.583Z,4.88
2018-02-22T12:10:39.105Z,5.00
2018-02-22T12:13:08.971Z,5.14
2018-02-22T12:15:39.336Z,5.05
2018-02-22T12:18:09.129Z,4.73
2018-02-22T12:20:38.815Z,4.82
2018-02-22T12:23:08.705Z,4.77
2018-02-22T12:25:38.514Z,4.89
2018-02-22T12:28:08.223Z,5.14
2018-02-22T12:30:37.991Z,5.08
2018-02-22T12:33:07.716Z,5.17
2018-02-22T12:35:37.381Z,5.02
2018-02-22T12:38:07.089Z,5.32
2018-02-22T12:40:36.947Z,5.11
2018-02-22T12:43:06.849Z,5.13
2018-02-22T12:45:36.606Z,5.15
2018-02-22T12:48:06.497Z,5.30
2018-02-22T12:50:36.250Z,5.31
2018-02-22T12:53:06.287Z,5.29
2018-02-22T12:55:36.030Z,5.33
2018-02-22T12:58:05.839Z,5.45
2018-02-22T13:00:35.572Z,5.58
2018-02-22T13:03:06.100Z,5.77
2018-02-22T13:05:35.933Z,5.59
2018-02-22T13:08:05.666Z,5.67
2018-02-22T13:10:35.560Z,5.52
2018-02-22T13:13:05.380Z,5.58
2018-02-22T13:15:35.203Z,5.70
2018-02-22T13:18:04.973Z,5.97
2018-02-22T13:20:35.568Z,5.72
2018-02-22T13:23:05.317Z,5.89
2018-02-22T13:25:35.040Z,5.85
2018-02-22T13:28:05.246Z,5.80
2018-02-22T13:30:34.976Z,5.68
2018-02-22T13:34:24.084Z,5.80
2018-02-22T13:36:53.841Z,5.61
2018-02-22T13:39:23.645Z,5.62
2018-02-22T13:41:54.147Z,5.70
2018-02-22T13:45:40.141Z,5.81
2018-02-22T13:48:09.934Z,6.04
2018-02-22T13:50:57.256Z,5.96
2018-02-22T13:53:27.081Z,5.95
2018-02-22T13:55:57.988Z,6.25
2018-02-22T13:58:27.696Z,6.46
2018-02-22T14:03:05.233Z,6.16
2018-02-22T14:05:35.719Z,6.38
2018-02-22T14:08:06.223Z,6.35
2018-02-22T14:10:36.022Z,6.53
2018-02-22T14:13:05.749Z,6.12
2018-02-22T14:15:35.568Z,6.02
2018-02-22T14:18:05.399Z,5.98
2018-02-22T14:20:35.383Z,5.89
2018-02-22T14:23:05.910Z,5.86
2018-02-22T14:25:35.817Z,5.79
2018-02-22T14:28:05.675Z,6.29
2018-02-22T14:30:36.165Z,5.98
2018-02-22T14:33:05.956Z,6.04
2018-02-22T14:35:35.803Z,6.11
2018-02-22T14:38:05.539Z,5.84
2018-02-22T14:40:35.491Z,5.72
2018-02-22T14:43:05.392Z,5.81
2018-02-22T14:45:35.212Z,5.77
2018-02-22T14:48:04.975Z,5.77
2018-02-22T14:50:34.937Z,5.76
2018-02-22T14:53:04.685Z,5.66
2018-02-22T14:55:34.530Z,5.72
2018-02-22T14:58:04.283Z,5.67
2018-02-22T15:00:34.809Z,5.64
2018-02-22T15:03:05.312Z,5.55
2018-02-22T15:05:35.600Z,5.58
2018-02-22T15:08:06.282Z,5.30
2018-02-22T15:10:36.072Z,5.50
2018-02-22T15:13:07.765Z,5.13
2018-02-22T15:15:37.546Z,5.19
2018-02-22T15:18:08.453Z,5.23
2018-02-22T15:20:38.155Z,5.27
2018-02-22T15:23:08.389Z,5.31
2018-02-22T15:25:38.199Z,5.40
2018-02-22T15:28:08.006Z,5.40
2018-02-22T15:30:38.569Z,5.40
2018-02-22T15:33:08.306Z,5.27
2018-02-22T15:35:38.041Z,5.21
2018-02-22T15:38:07.864Z,5.13
2018-02-22T15:40:37.936Z,5.10
2018-02-22T15:43:08.172Z,4.98
2018-02-22T15:45:38.916Z,5.03
2018-02-22T15:48:09.504Z,5.05
2018-02-22T15:50:39.529Z,5.04
2018-02-22T15:53:09.295Z,4.91
2018-02-22T15:55:39.114Z,4.83
2018-02-22T15:58:08.948Z,4.84
2018-02-22T16:00:39.458Z,4.71
2018-02-22T16:03:09.264Z,4.72
2018-02-22T16:05:39.012Z,4.70
2018-02-22T16:08:09.231Z,4.76
2018-02-22T16:10:38.949Z,4.75
2018-02-22T16:13:08.655Z,4.76
2018-02-22T16:15:38.527Z,4.71
2018-02-22T16:18:08.447Z,4.70
2018-02-22T16:20:38.247Z,4.63
2018-02-22T16:23:08.804Z,4.45
2018-02-22T16:25:38.579Z,4.38
2018-02-22T16:28:08.418Z,4.29
2018-02-22T16:30:38.171Z,4.27
2018-02-22T16:33:07.884Z,4.27
2018-02-22T16:35:37.709Z,4.23
2018-02-22T16:38:07.418Z,4.20
2018-02-22T16:40:37.254Z,4.09
2018-02-22T16:43:07.095Z,4.06
2018-02-22T16:45:38.197Z,3.99
2018-02-22T16:48:07.959Z,4.01
2018-02-22T16:50:38.617Z,3.91
2018-02-22T16:53:08.478Z,3.90
2018-02-22T16:55:39.022Z,3.82
2018-02-22T16:58:08.873Z,3.82
2018-02-22T17:00:39.147Z,3.80
2018-02-22T17:03:08.990Z,3.76
2018-02-22T17:05:38.893Z,3.73
2018-02-22T17:08:08.694Z,3.66
2018-02-22T17:10:38.632Z,3.68
2018-02-22T17:13:08.529Z,3.64
2018-02-22T17:15:38.324Z,3.55
2018-02-22T17:18:09.368Z,3.52
2018-02-22T17:20:39.104Z,3.47
2018-02-22T17:23:09.038Z,3.47
2018-02-22T17:25:37.819Z,3.44
2018-02-22T17:28:13.619Z,3.39
2018-02-22T17:30:49.359Z,3.38
2018-02-22T17:33:19.309Z,3.31
2018-02-22T17:35:49.374Z,3.33
2018-02-22T17:38:19.258Z,3.27
2018-02-22T17:40:49.259Z,3.21
2018-02-22T17:43:19.338Z,3.19
2018-02-22T17:45:49.144Z,3.25
2018-02-22T17:48:18.994Z,3.21
2018-02-22T17:50:48.839Z,3.16
2018-02-22T17:53:19.439Z,3.16
2018-02-22T17:55:49.268Z,3.18
2018-02-22T17:58:19.301Z,3.19
2018-02-22T18:00:49.485Z,3.12
2018-02-22T18:03:19.593Z,3.05
2018-02-22T18:05:49.426Z,3.07
2018-02-22T18:08:20.020Z,3.04
2018-02-22T18:10:50.196Z,3.04
2018-02-22T18:13:19.964Z,3.02
2018-02-22T18:15:49.989Z,3.04
2018-02-22T18:18:19.778Z,3.17
2018-02-22T18:20:50.440Z,3.19
2018-02-22T18:23:20.489Z,3.09
2018-02-22T18:25:50.636Z,2.95
2018-02-22T18:28:20.473Z,2.91
2018-02-22T18:30:50.484Z,2.98
2018-02-22T18:33:20.299Z,2.98
2018-02-22T18:35:51.300Z,2.86
2018-02-22T18:38:21.148Z,2.82
2018-02-22T18:40:59.101Z,2.81
2018-02-22T18:43:33.733Z,2.81
2018-02-22T18:46:03.594Z,2.79
2018-02-22T18:48:33.583Z,2.80
2018-02-22T18:51:05.287Z,2.77
2018-02-22T18:53:35.122Z,2.77
2018-02-22T18:56:06.362Z,2.74
2018-02-22T18:58:42.496Z,2.69
2018-02-22T19:01:13.666Z,2.71
2018-02-22T19:03:45.256Z,2.64
2018-02-22T19:06:16.716Z,2.63
2018-02-22T19:08:47.969Z,2.61
2018-02-22T19:11:20.279Z,2.58
2018-02-22T19:13:51.140Z,2.62
2018-02-22T19:16:22.683Z,2.57
2018-02-22T19:18:52.863Z,2.58
2018-02-22T19:21:22.798Z,2.59
2018-02-22T19:23:53.130Z,2.51
2018-02-22T19:26:23.303Z,2.53
2018-02-22T19:28:53.488Z,2.56
2018-02-22T19:31:23.605Z,2.52
2018-02-22T19:33:54.024Z,2.47
2018-02-22T19:36:24.221Z,2.44
2018-02-22T19:38:54.097Z,2.44
2018-02-22T19:41:24.339Z,2.41
2018-02-22T19:43:54.361Z,2.39
2018-02-22T19:46:24.832Z,2.43
2018-02-22T19:48:54.625Z,2.42
2018-02-22T19:51:25.125Z,2.36
2018-02-22T19:53:55.205Z,2.33
2018-02-22T19:56:25.354Z,2.32
2018-02-22T19:58:55.306Z,2.32
2018-02-22T20:01:25.270Z,2.34
2018-02-22T20:03:55.650Z,2.32
2018-02-22T20:06:26.430Z,2.34
2018-02-22T20:08:56.413Z,2.34
2018-02-22T20:11:26.371Z,2.31
2018-02-22T20:13:56.565Z,2.22
2018-02-22T20:16:26.652Z,2.38
2018-02-22T20:18:56.676Z,2.33
2018-02-22T20:21:26.860Z,2.28
2018-02-22T20:23:56.908Z,2.26
2018-02-22T20:26:27.017Z,2.23
2018-02-22T20:28:57.840Z,2.17
2018-02-22T20:31:28.582Z,2.21
2018-02-22T20:33:58.358Z,2.18
2018-02-22T20:36:28.998Z,2.15
2018-02-22T20:38:58.910Z,2.18
2018-02-22T20:41:28.917Z,2.18
2018-02-22T20:43:59.566Z,2.17
2018-02-22T20:46:29.537Z,2.16
2018-02-22T20:48:59.349Z,2.07
2018-02-22T20:51:29.697Z,2.07
2018-02-22T20:53:59.529Z,2.06
2018-02-22T20:56:29.419Z,2.10
2018-02-22T20:59:01.276Z,2.08
2018-02-22T21:01:32.000Z,2.06
2018-02-22T21:04:03.519Z,2.04
2018-02-22T21:06:33.613Z,2.02
2018-02-22T21:09:04.284Z,2.03
2018-02-22T21:11:35.062Z,2.02
2018-02-22T21:14:05.410Z,2.01
2018-02-22T21:16:35.743Z,2.00
2018-02-22T21:19:06.283Z,1.97
2018-02-22T21:21:36.051Z,1.93
2018-02-22T21:24:06.058Z,1.94
2018-02-22T21:26:35.843Z,1.99
2018-02-22T21:29:09.552Z,1.95
2018-02-22T21:31:41.140Z,1.95
2018-02-22T21:34:12.556Z,1.90
2018-02-22T21:36:43.980Z,1.87
2018-02-22T21:39:15.986Z,1.86
2018-02-22T21:41:47.139Z,1.84
2018-02-22T21:44:16.865Z,1.86
2018-02-22T21:46:46.751Z,1.91
2018-02-22T21:49:16.496Z,1.88
2018-02-22T21:51:54.038Z,1.85
2018-02-22T21:54:23.900Z,1.82
2018-02-22T21:56:53.662Z,1.83
2018-02-22T21:59:23.412Z,1.74
2018-02-22T22:01:59.509Z,1.74
2018-02-22T22:04:29.332Z,1.74
2018-02-22T22:06:59.139Z,1.74
2018-02-22T22:09:28.876Z,1.72
2018-02-22T22:11:58.780Z,1.70
2018-02-22T22:14:28.583Z,1.71
2018-02-22T22:16:59.101Z,1.70
2018-02-22T22:19:28.852Z,1.67
2018-02-22T22:21:59.027Z,1.67
2018-02-22T22:24:29.642Z,1.61
2018-02-22T22:26:59.470Z,1.65
2018-02-22T22:29:29.181Z,1.57
2018-02-22T22:31:59.744Z,1.63
2018-02-22T22:34:29.461Z,1.63
2018-02-22T22:36:59.336Z,1.61
2018-02-22T22:39:29.089Z,1.56
2018-02-22T22:41:59.571Z,1.61
2018-02-22T22:44:30.009Z,1.61
2018-02-22T22:46:59.741Z,1.57
2018-02-22T22:49:29.518Z,1.54
2018-02-22T22:51:59.236Z,1.51
2018-02-22T22:54:29.752Z,1.39
2018-02-22T22:56:59.630Z,1.45
2018-02-22T22:59:29.634Z,1.43
2018-02-22T23:02:00.107Z,1.37
2018-02-22T23:04:29.818Z,1.30
2018-02-22T23:06:59.588Z,1.42
2018-02-22T23:09:29.348Z,1.39
2018-02-22T23:12:00.219Z,1.39
2018-02-22T23:14:30.019Z,1.30
2018-02-22T23:17:00.501Z,1.29
2018-02-22T23:19:30.395Z,1.29
2018-02-22T23:22:00.158Z,1.28
2018-02-22T23:24:29.910Z,1.30
2018-02-22T23:26:59.699Z,1.31
2018-02-22T23:29:29.485Z,1.28
2018-02-22T23:31:59.233Z,1.28
2018-02-22T23:34:29.045Z,1.18
2018-02-22T23:36:58.783Z,1.18
2018-02-22T23:39:29.080Z,1.23
2018-02-22T23:41:59.704Z,1.28
2018-02-22T23:44:29.477Z,1.20
2018-02-22T23:46:59.348Z,1.31
2018-02-22T23:49:29.193Z,1.23
2018-02-22T23:51:59.716Z,1.19
2018-02-22T23:54:29.485Z,1.10
2018-02-22T23:56:59.329Z,1.17
2018-02-22T23:59:29.016Z,1.07
